sensor_id;sensor_type;location;lat;lon;timestamp;temperature;humidity
62575;DHT22;53112;45.602;11.904;2023-02-20T00:00:30;6.10;68.00
62575;DHT22;53112;45.602;11.904;2023-02-20T00:02:57;6.20;67.70
62575;DHT22;53112;45.602;11.904;2023-02-20T00:05:23;6.10;67.80
62575;DHT22;53112;45.602;11.904;2023-02-20T00:07:48;6.20;68.00
62575;DHT22;53112;45.602;11.904;2023-02-20T00:10:15;6.20;67.80
62575;DHT22;53112;45.602;11.904;2023-02-20T00:12:40;6.30;67.80
62575;DHT22;53112;45.602;11.904;2023-02-20T00:15:07;6.20;69.30
62575;DHT22;53112;45.602;11.904;2023-02-20T00:17:33;6.10;69.70
62575;DHT22;53112;45.602;11.904;2023-02-20T00:20:00;6.00;71.80
62575;DHT22;53112;45.602;11.904;2023-02-20T00:22:26;6.10;71.10
62575;DHT22;53112;45.602;11.904;2023-02-20T00:24:54;6.20;70.60
62575;DHT22;53112;45.602;11.904;2023-02-20T00:27:19;6.30;69.60
62575;DHT22;53112;45.602;11.904;2023-02-20T00:29:45;6.30;70.60
62575;DHT22;53112;45.602;11.904;2023-02-20T00:32:12;5.90;72.40
62575;DHT22;53112;45.602;11.904;2023-02-20T00:34:38;5.60;74.40
62575;DHT22;53112;45.602;11.904;2023-02-20T00:37:04;5.40;76.10
62575;DHT22;53112;45.602;11.904;2023-02-20T00:39:33;5.50;75.30
62575;DHT22;53112;45.602;11.904;2023-02-20T00:41:58;5.50;74.80
62575;DHT22;53112;45.602;11.904;2023-02-20T00:46:53;6.00;72.60
62575;DHT22;53112;45.602;11.904;2023-02-20T00:49:19;6.10;70.90
62575;DHT22;53112;45.602;11.904;2023-02-20T00:51:45;6.20;70.30
62575;DHT22;53112;45.602;11.904;2023-02-20T00:56:40;6.20;70.00
62575;DHT22;53112;45.602;11.904;2023-02-20T00:59:06;6.20;69.00
62575;DHT22;53112;45.602;11.904;2023-02-20T01:01:32;6.10;69.10
62575;DHT22;53112;45.602;11.904;2023-02-20T01:03:58;6.20;69.10
62575;DHT22;53112;45.602;11.904;2023-02-20T01:06:24;6.10;69.70
62575;DHT22;53112;45.602;11.904;2023-02-20T01:08:50;6.20;69.30
62575;DHT22;53112;45.602;11.904;2023-02-20T01:11:16;6.20;68.80
62575;DHT22;53112;45.602;11.904;2023-02-20T01:13:42;6.10;69.20
62575;DHT22;53112;45.602;11.904;2023-02-20T01:16:08;5.90;69.50
62575;DHT22;53112;45.602;11.904;2023-02-20T01:18:34;5.90;70.00
62575;DHT22;53112;45.602;11.904;2023-02-20T01:21:00;6.10;69.40
62575;DHT22;53112;45.602;11.904;2023-02-20T01:23:26;5.80;70.40
62575;DHT22;53112;45.602;11.904;2023-02-20T01:25:52;5.40;72.60
62575;DHT22;53112;45.602;11.904;2023-02-20T01:28:18;5.50;71.80
62575;DHT22;53112;45.602;11.904;2023-02-20T01:30:44;5.80;71.10
62575;DHT22;53112;45.602;11.904;2023-02-20T01:33:10;5.90;69.90
62575;DHT22;53112;45.602;11.904;2023-02-20T01:35:36;6.00;69.90
62575;DHT22;53112;45.602;11.904;2023-02-20T01:38:02;6.20;70.00
62575;DHT22;53112;45.602;11.904;2023-02-20T01:43:02;6.40;70.10
62575;DHT22;53112;45.602;11.904;2023-02-20T01:45:30;6.30;70.20
62575;DHT22;53112;45.602;11.904;2023-02-20T01:47:57;6.40;70.40
62575;DHT22;53112;45.602;11.904;2023-02-20T01:50:42;6.60;69.00
62575;DHT22;53112;45.602;11.904;2023-02-20T01:53:13;6.70;69.50
62575;DHT22;53112;45.602;11.904;2023-02-20T01:55:44;6.20;72.70
62575;DHT22;53112;45.602;11.904;2023-02-20T02:00:45;6.70;71.80
62575;DHT22;53112;45.602;11.904;2023-02-20T02:03:13;6.90;70.80
62575;DHT22;53112;45.602;11.904;2023-02-20T02:05:45;7.10;70.60
62575;DHT22;53112;45.602;11.904;2023-02-20T02:08:14;7.20;69.20
62575;DHT22;53112;45.602;11.904;2023-02-20T02:11:01;7.40;68.80
62575;DHT22;53112;45.602;11.904;2023-02-20T02:13:28;7.50;68.90
62575;DHT22;53112;45.602;11.904;2023-02-20T02:27:29;7.90;68.30
62575;DHT22;53112;45.602;11.904;2023-02-20T02:43:44;8.30;69.00
62575;DHT22;53112;45.602;11.904;2023-02-20T02:49:06;8.40;67.80
62575;DHT22;53112;45.602;11.904;2023-02-20T02:51:38;8.50;67.80
62575;DHT22;53112;45.602;11.904;2023-02-20T02:54:13;8.40;68.20
62575;DHT22;53112;45.602;11.904;2023-02-20T02:56:41;8.50;67.60
62575;DHT22;53112;45.602;11.904;2023-02-20T02:59:32;8.40;68.70
62575;DHT22;53112;45.602;11.904;2023-02-20T03:02:02;8.40;68.70
62575;DHT22;53112;45.602;11.904;2023-02-20T03:04:30;8.70;68.40
62575;DHT22;53112;45.602;11.904;2023-02-20T03:07:00;8.80;67.70
62575;DHT22;53112;45.602;11.904;2023-02-20T03:09:31;8.80;67.50
62575;DHT22;53112;45.602;11.904;2023-02-20T03:12:00;8.90;67.90
62575;DHT22;53112;45.602;11.904;2023-02-20T03:14:37;8.90;67.30
62575;DHT22;53112;45.602;11.904;2023-02-20T03:17:55;8.80;68.30
62575;DHT22;53112;45.602;11.904;2023-02-20T03:20:23;8.90;68.30
62575;DHT22;53112;45.602;11.904;2023-02-20T03:22:59;8.60;69.20
62575;DHT22;53112;45.602;11.904;2023-02-20T03:25:29;8.30;70.50
62575;DHT22;53112;45.602;11.904;2023-02-20T03:27:59;8.40;70.50
62575;DHT22;53112;45.602;11.904;2023-02-20T03:33:44;8.20;71.50
62575;DHT22;53112;45.602;11.904;2023-02-20T03:36:37;8.40;71.10
62575;DHT22;53112;45.602;11.904;2023-02-20T03:39:32;8.60;69.50
62575;DHT22;53112;45.602;11.904;2023-02-20T03:42:20;8.90;69.40
62575;DHT22;53112;45.602;11.904;2023-02-20T03:45:07;9.00;68.00
62575;DHT22;53112;45.602;11.904;2023-02-20T03:47:36;8.80;69.60
62575;DHT22;53112;45.602;11.904;2023-02-20T03:50:06;9.00;68.90
62575;DHT22;53112;45.602;11.904;2023-02-20T03:52:33;8.90;69.40
62575;DHT22;53112;45.602;11.904;2023-02-20T03:55:00;9.10;68.60
62575;DHT22;53112;45.602;11.904;2023-02-20T03:57:33;9.20;68.20
62575;DHT22;53112;45.602;11.904;2023-02-20T04:00:04;9.30;68.40
62575;DHT22;53112;45.602;11.904;2023-02-20T04:02:41;9.40;67.60
62575;DHT22;53112;45.602;11.904;2023-02-20T04:05:18;9.40;68.20
62575;DHT22;53112;45.602;11.904;2023-02-20T04:10:27;9.40;68.20
62575;DHT22;53112;45.602;11.904;2023-02-20T04:12:55;9.20;69.00
62575;DHT22;53112;45.602;11.904;2023-02-20T04:15:23;8.90;70.40
62575;DHT22;53112;45.602;11.904;2023-02-20T04:18:10;9.00;70.20
62575;DHT22;53112;45.602;11.904;2023-02-20T04:20:37;8.90;71.00
62575;DHT22;53112;45.602;11.904;2023-02-20T04:23:18;9.00;70.70
62575;DHT22;53112;45.602;11.904;2023-02-20T04:25:48;8.80;71.90
62575;DHT22;53112;45.602;11.904;2023-02-20T04:28:16;8.80;71.70
62575;DHT22;53112;45.602;11.904;2023-02-20T04:30:42;8.90;71.50
62575;DHT22;53112;45.602;11.904;2023-02-20T04:33:10;9.10;71.10
62575;DHT22;53112;45.602;11.904;2023-02-20T04:35:38;9.50;70.00
62575;DHT22;53112;45.602;11.904;2023-02-20T04:38:05;9.70;69.30
62575;DHT22;53112;45.602;11.904;2023-02-20T04:40:32;9.30;70.30
62575;DHT22;53112;45.602;11.904;2023-02-20T04:42:57;9.10;71.40
62575;DHT22;53112;45.602;11.904;2023-02-20T04:45:24;8.90;72.60
62575;DHT22;53112;45.602;11.904;2023-02-20T04:47:49;8.90;72.20
62575;DHT22;53112;45.602;11.904;2023-02-20T04:50:20;9.20;71.60
62575;DHT22;53112;45.602;11.904;2023-02-20T04:52:46;9.10;71.50
62575;DHT22;53112;45.602;11.904;2023-02-20T04:55:13;9.10;71.90
62575;DHT22;53112;45.602;11.904;2023-02-20T04:57:39;9.20;71.50
62575;DHT22;53112;45.602;11.904;2023-02-20T05:00:06;9.10;71.90
62575;DHT22;53112;45.602;11.904;2023-02-20T05:02:33;9.30;71.50
62575;DHT22;53112;45.602;11.904;2023-02-20T05:04:59;9.40;71.00
62575;DHT22;53112;45.602;11.904;2023-02-20T05:07:25;9.60;70.60
62575;DHT22;53112;45.602;11.904;2023-02-20T05:09:51;9.70;69.90
62575;DHT22;53112;45.602;11.904;2023-02-20T05:12:17;9.90;69.70
62575;DHT22;53112;45.602;11.904;2023-02-20T05:14:43;10.10;69.40
62575;DHT22;53112;45.602;11.904;2023-02-20T05:17:09;9.90;69.20
62575;DHT22;53112;45.602;11.904;2023-02-20T05:19:35;9.90;69.80
62575;DHT22;53112;45.602;11.904;2023-02-20T05:22:00;10.00;69.30
62575;DHT22;53112;45.602;11.904;2023-02-20T05:24:46;9.60;70.00
62575;DHT22;53112;45.602;11.904;2023-02-20T05:27:14;9.60;70.90
62575;DHT22;53112;45.602;11.904;2023-02-20T05:29:52;9.70;71.10
62575;DHT22;53112;45.602;11.904;2023-02-20T05:32:19;9.90;69.40
62575;DHT22;53112;45.602;11.904;2023-02-20T05:34:46;9.70;70.40
62575;DHT22;53112;45.602;11.904;2023-02-20T05:37:14;9.80;70.70
62575;DHT22;53112;45.602;11.904;2023-02-20T05:39:40;9.70;69.70
62575;DHT22;53112;45.602;11.904;2023-02-20T05:42:07;9.50;70.80
62575;DHT22;53112;45.602;11.904;2023-02-20T05:44:34;9.50;71.40
62575;DHT22;53112;45.602;11.904;2023-02-20T05:47:00;9.30;71.40
62575;DHT22;53112;45.602;11.904;2023-02-20T05:49:27;9.30;71.60
62575;DHT22;53112;45.602;11.904;2023-02-20T05:51:55;9.80;70.40
62575;DHT22;53112;45.602;11.904;2023-02-20T05:54:22;9.80;70.40
62575;DHT22;53112;45.602;11.904;2023-02-20T05:56:48;9.60;71.40
62575;DHT22;53112;45.602;11.904;2023-02-20T05:59:18;9.50;71.20
62575;DHT22;53112;45.602;11.904;2023-02-20T06:01:46;9.60;71.40
62575;DHT22;53112;45.602;11.904;2023-02-20T06:04:12;9.60;71.20
62575;DHT22;53112;45.602;11.904;2023-02-20T06:06:41;9.90;70.30
62575;DHT22;53112;45.602;11.904;2023-02-20T06:09:10;10.30;69.20
62575;DHT22;53112;45.602;11.904;2023-02-20T06:11:37;10.60;68.30
62575;DHT22;53112;45.602;11.904;2023-02-20T06:14:05;10.20;68.90
62575;DHT22;53112;45.602;11.904;2023-02-20T06:16:32;9.90;69.50
62575;DHT22;53112;45.602;11.904;2023-02-20T06:18:59;9.50;70.40
62575;DHT22;53112;45.602;11.904;2023-02-20T06:21:26;9.20;71.70
62575;DHT22;53112;45.602;11.904;2023-02-20T06:23:53;9.50;71.50
62575;DHT22;53112;45.602;11.904;2023-02-20T06:26:21;9.80;70.10
62575;DHT22;53112;45.602;11.904;2023-02-20T06:28:47;10.10;69.70
62575;DHT22;53112;45.602;11.904;2023-02-20T06:31:26;9.70;70.20
62575;DHT22;53112;45.602;11.904;2023-02-20T06:33:53;9.50;70.80
62575;DHT22;53112;45.602;11.904;2023-02-20T06:36:28;9.80;70.10
62575;DHT22;53112;45.602;11.904;2023-02-20T06:38:54;10.10;69.00
62575;DHT22;53112;45.602;11.904;2023-02-20T06:41:20;10.20;68.50
62575;DHT22;53112;45.602;11.904;2023-02-20T06:43:46;10.20;68.00
62575;DHT22;53112;45.602;11.904;2023-02-20T06:46:12;10.10;68.70
62575;DHT22;53112;45.602;11.904;2023-02-20T06:48:50;10.20;68.70
62575;DHT22;53112;45.602;11.904;2023-02-20T06:51:18;10.30;67.80
62575;DHT22;53112;45.602;11.904;2023-02-20T06:53:44;10.40;67.80
62575;DHT22;53112;45.602;11.904;2023-02-20T06:56:18;10.60;67.40
62575;DHT22;53112;45.602;11.904;2023-02-20T06:58:49;10.80;66.50
62575;DHT22;53112;45.602;11.904;2023-02-20T07:01:16;10.60;66.80
62575;DHT22;53112;45.602;11.904;2023-02-20T07:03:42;10.20;68.40
62575;DHT22;53112;45.602;11.904;2023-02-20T07:06:11;10.20;68.70
62575;DHT22;53112;45.602;11.904;2023-02-20T07:08:37;10.20;68.90
62575;DHT22;53112;45.602;11.904;2023-02-20T07:11:03;10.30;68.90
62575;DHT22;53112;45.602;11.904;2023-02-20T07:13:29;10.20;68.80
62575;DHT22;53112;45.602;11.904;2023-02-20T07:15:55;10.20;69.00
62575;DHT22;53112;45.602;11.904;2023-02-20T07:18:20;10.20;68.20
62575;DHT22;53112;45.602;11.904;2023-02-20T07:20:50;10.40;69.00
62575;DHT22;53112;45.602;11.904;2023-02-20T07:23:16;10.70;68.10
62575;DHT22;53112;45.602;11.904;2023-02-20T07:25:42;10.70;68.30
62575;DHT22;53112;45.602;11.904;2023-02-20T07:28:08;10.70;68.10
62575;DHT22;53112;45.602;11.904;2023-02-20T07:30:34;11.10;68.00
62575;DHT22;53112;45.602;11.904;2023-02-20T07:33:00;11.50;66.40
62575;DHT22;53112;45.602;11.904;2023-02-20T07:35:26;11.80;65.80
62575;DHT22;53112;45.602;11.904;2023-02-20T07:37:51;12.10;65.30
62575;DHT22;53112;45.602;11.904;2023-02-20T07:40:17;12.30;64.70
62575;DHT22;53112;45.602;11.904;2023-02-20T07:42:43;12.60;64.10
62575;DHT22;53112;45.602;11.904;2023-02-20T07:45:10;12.70;62.70
62575;DHT22;53112;45.602;11.904;2023-02-20T07:47:36;12.80;62.50
62575;DHT22;53112;45.602;11.904;2023-02-20T07:50:02;13.10;62.30
62575;DHT22;53112;45.602;11.904;2023-02-20T07:52:28;13.20;61.40
62575;DHT22;53112;45.602;11.904;2023-02-20T07:54:54;13.40;61.50
62575;DHT22;53112;45.602;11.904;2023-02-20T07:57:20;13.30;61.40
62575;DHT22;53112;45.602;11.904;2023-02-20T07:59:46;13.20;61.40
62575;DHT22;53112;45.602;11.904;2023-02-20T08:02:12;13.50;61.30
62575;DHT22;53112;45.602;11.904;2023-02-20T08:04:37;13.60;61.10
62575;DHT22;53112;45.602;11.904;2023-02-20T08:07:03;13.80;60.70
62575;DHT22;53112;45.602;11.904;2023-02-20T08:09:32;13.90;59.80
62575;DHT22;53112;45.602;11.904;2023-02-20T08:11:58;13.70;59.60
62575;DHT22;53112;45.602;11.904;2023-02-20T08:14:24;14.10;58.70
62575;DHT22;53112;45.602;11.904;2023-02-20T08:16:50;14.10;58.30
62575;DHT22;53112;45.602;11.904;2023-02-20T08:19:15;13.90;59.20
62575;DHT22;53112;45.602;11.904;2023-02-20T08:21:41;14.00;59.20
62575;DHT22;53112;45.602;11.904;2023-02-20T08:24:07;13.90;58.90
62575;DHT22;53112;45.602;11.904;2023-02-20T08:26:33;14.20;59.80
62575;DHT22;53112;45.602;11.904;2023-02-20T08:29:01;14.70;58.30
62575;DHT22;53112;45.602;11.904;2023-02-20T08:31:27;14.90;58.30
62575;DHT22;53112;45.602;11.904;2023-02-20T08:33:53;15.70;56.30
62575;DHT22;53112;45.602;11.904;2023-02-20T08:36:19;16.20;55.30
62575;DHT22;53112;45.602;11.904;2023-02-20T08:38:45;16.40;52.10
62575;DHT22;53112;45.602;11.904;2023-02-20T08:41:12;17.00;53.50
62575;DHT22;53112;45.602;11.904;2023-02-20T08:43:39;17.40;52.60
62575;DHT22;53112;45.602;11.904;2023-02-20T08:46:06;17.50;52.50
62575;DHT22;53112;45.602;11.904;2023-02-20T08:48:33;17.90;50.00
62575;DHT22;53112;45.602;11.904;2023-02-20T08:50:59;18.20;50.20
62575;DHT22;53112;45.602;11.904;2023-02-20T08:53:25;18.60;50.00
62575;DHT22;53112;45.602;11.904;2023-02-20T08:55:51;18.70;49.10
62575;DHT22;53112;45.602;11.904;2023-02-20T08:58:20;18.90;47.60
62575;DHT22;53112;45.602;11.904;2023-02-20T09:00:48;19.00;48.30
62575;DHT22;53112;45.602;11.904;2023-02-20T09:03:14;18.80;47.60
62575;DHT22;53112;45.602;11.904;2023-02-20T09:05:39;19.60;47.80
62575;DHT22;53112;45.602;11.904;2023-02-20T09:08:06;19.80;46.80
62575;DHT22;53112;45.602;11.904;2023-02-20T09:10:32;20.20;45.80
62575;DHT22;53112;45.602;11.904;2023-02-20T09:12:58;19.60;44.80
62575;DHT22;53112;45.602;11.904;2023-02-20T09:18:00;20.00;44.60
62575;DHT22;53112;45.602;11.904;2023-02-20T09:20:25;19.90;44.30
62575;DHT22;53112;45.602;11.904;2023-02-20T09:22:57;19.60;43.60
62575;DHT22;53112;45.602;11.904;2023-02-20T09:25:23;19.20;45.80
62575;DHT22;53112;45.602;11.904;2023-02-20T09:27:48;19.10;44.40
62575;DHT22;53112;45.602;11.904;2023-02-20T09:30:16;18.80;46.80
62575;DHT22;53112;45.602;11.904;2023-02-20T09:32:46;18.90;46.70
62575;DHT22;53112;45.602;11.904;2023-02-20T09:35:18;19.60;45.30
62575;DHT22;53112;45.602;11.904;2023-02-20T09:37:44;20.20;44.90
62575;DHT22;53112;45.602;11.904;2023-02-20T09:40:11;19.80;44.80
62575;DHT22;53112;45.602;11.904;2023-02-20T09:45:34;20.80;42.40
62575;DHT22;53112;45.602;11.904;2023-02-20T09:48:06;21.00;40.30
62575;DHT22;53112;45.602;11.904;2023-02-20T09:53:21;21.10;38.70
62575;DHT22;53112;45.602;11.904;2023-02-20T09:55:48;21.60;39.90
62575;DHT22;53112;45.602;11.904;2023-02-20T10:01:18;22.10;38.10
62575;DHT22;53112;45.602;11.904;2023-02-20T10:06:19;22.90;36.00
62575;DHT22;53112;45.602;11.904;2023-02-20T10:08:49;23.70;35.60
62575;DHT22;53112;45.602;11.904;2023-02-20T10:17:09;23.10;35.90
62575;DHT22;53112;45.602;11.904;2023-02-20T10:22:21;22.30;35.70
62575;DHT22;53112;45.602;11.904;2023-02-20T10:25:08;22.80;34.80
62575;DHT22;53112;45.602;11.904;2023-02-20T10:30:51;22.90;35.00
62575;DHT22;53112;45.602;11.904;2023-02-20T10:33:35;21.70;36.40
62575;DHT22;53112;45.602;11.904;2023-02-20T10:38:40;22.90;35.60
62575;DHT22;53112;45.602;11.904;2023-02-20T10:43:48;23.90;34.70
62575;DHT22;53112;45.602;11.904;2023-02-20T10:48:51;25.60;30.60
62575;DHT22;53112;45.602;11.904;2023-02-20T10:51:31;25.30;31.00
62575;DHT22;53112;45.602;11.904;2023-02-20T11:02:18;25.30;29.90
62575;DHT22;53112;45.602;11.904;2023-02-20T11:05:03;22.80;33.20
62575;DHT22;53112;45.602;11.904;2023-02-20T11:07:32;21.90;35.60
62575;DHT22;53112;45.602;11.904;2023-02-20T11:09:58;21.50;35.70
62575;DHT22;53112;45.602;11.904;2023-02-20T11:12:26;21.60;35.60
62575;DHT22;53112;45.602;11.904;2023-02-20T11:15:07;21.80;36.10
62575;DHT22;53112;45.602;11.904;2023-02-20T11:17:37;23.60;34.00
62575;DHT22;53112;45.602;11.904;2023-02-20T11:20:04;24.30;31.90
62575;DHT22;53112;45.602;11.904;2023-02-20T11:22:46;22.80;34.20
62575;DHT22;53112;45.602;11.904;2023-02-20T11:25:25;22.40;34.10
62575;DHT22;53112;45.602;11.904;2023-02-20T11:27:54;22.10;34.90
62575;DHT22;53112;45.602;11.904;2023-02-20T11:30:35;23.20;33.50
62575;DHT22;53112;45.602;11.904;2023-02-20T11:35:37;25.00;30.40
62575;DHT22;53112;45.602;11.904;2023-02-20T11:43:25;26.20;28.60
62575;DHT22;53112;45.602;11.904;2023-02-20T11:46:14;24.10;31.00
62575;DHT22;53112;45.602;11.904;2023-02-20T11:49:00;24.70;31.40
62575;DHT22;53112;45.602;11.904;2023-02-20T11:51:43;26.90;28.40
62575;DHT22;53112;45.602;11.904;2023-02-20T11:54:17;27.80;26.30
62575;DHT22;53112;45.602;11.904;2023-02-20T11:59:48;27.40;27.10
62575;DHT22;53112;45.602;11.904;2023-02-20T12:04:41;29.90;25.70
62575;DHT22;53112;45.602;11.904;2023-02-20T12:12:58;30.40;24.00
62575;DHT22;53112;45.602;11.904;2023-02-20T12:15:27;29.50;25.20
62575;DHT22;53112;45.602;11.904;2023-02-20T12:20:47;27.20;27.30
62575;DHT22;53112;45.602;11.904;2023-02-20T12:23:27;28.60;25.90
62575;DHT22;53112;45.602;11.904;2023-02-20T12:34:38;29.10;26.50
62575;DHT22;53112;45.602;11.904;2023-02-20T12:37:18;30.30;24.60
62575;DHT22;53112;45.602;11.904;2023-02-20T12:45:17;26.40;27.40
62575;DHT22;53112;45.602;11.904;2023-02-20T12:47:54;26.60;27.70
62575;DHT22;53112;45.602;11.904;2023-02-20T12:50:33;27.80;26.60
62575;DHT22;53112;45.602;11.904;2023-02-20T12:53:47;29.10;25.80
62575;DHT22;53112;45.602;11.904;2023-02-20T12:59:26;29.00;25.30
62575;DHT22;53112;45.602;11.904;2023-02-20T13:01:54;29.60;24.90
62575;DHT22;53112;45.602;11.904;2023-02-20T13:04:39;30.60;24.70
62575;DHT22;53112;45.602;11.904;2023-02-20T13:07:23;30.90;22.90
62575;DHT22;53112;45.602;11.904;2023-02-20T13:10:31;30.80;23.60
62575;DHT22;53112;45.602;11.904;2023-02-20T13:12:58;30.50;23.70
62575;DHT22;53112;45.602;11.904;2023-02-20T13:21:14;31.60;22.90
62575;DHT22;53112;45.602;11.904;2023-02-20T13:23:41;31.80;22.80
62575;DHT22;53112;45.602;11.904;2023-02-20T13:29:17;32.30;21.80
62575;DHT22;53112;45.602;11.904;2023-02-20T13:31:54;33.20;21.20
62575;DHT22;53112;45.602;11.904;2023-02-20T13:36:54;33.00;21.40
62575;DHT22;53112;45.602;11.904;2023-02-20T13:44:40;33.70;20.40
62575;DHT22;53112;45.602;11.904;2023-02-20T14:02:59;34.30;19.30
62575;DHT22;53112;45.602;11.904;2023-02-20T14:05:30;33.80;20.00
62575;DHT22;53112;45.602;11.904;2023-02-20T14:07:57;33.30;20.70
62575;DHT22;53112;45.602;11.904;2023-02-20T14:10:35;32.50;21.00
62575;DHT22;53112;45.602;11.904;2023-02-20T14:15:54;34.00;19.90
62575;DHT22;53112;45.602;11.904;2023-02-20T14:18:30;34.70;19.00
62575;DHT22;53112;45.602;11.904;2023-02-20T14:21:18;33.50;20.30
62575;DHT22;53112;45.602;11.904;2023-02-20T14:23:44;34.70;19.70
62575;DHT22;53112;45.602;11.904;2023-02-20T14:26:32;35.50;19.20
62575;DHT22;53112;45.602;11.904;2023-02-20T14:29:00;34.40;18.80
62575;DHT22;53112;45.602;11.904;2023-02-20T14:31:32;33.70;20.40
62575;DHT22;53112;45.602;11.904;2023-02-20T14:33:58;32.70;21.30
62575;DHT22;53112;45.602;11.904;2023-02-20T14:39:21;31.30;22.50
62575;DHT22;53112;45.602;11.904;2023-02-20T14:42:00;31.10;23.10
62575;DHT22;53112;45.602;11.904;2023-02-20T14:44:27;31.10;22.40
62575;DHT22;53112;45.602;11.904;2023-02-20T14:47:09;30.40;23.30
62575;DHT22;53112;45.602;11.904;2023-02-20T14:49:36;29.90;23.40
62575;DHT22;53112;45.602;11.904;2023-02-20T14:52:15;31.80;22.10
62575;DHT22;53112;45.602;11.904;2023-02-20T14:54:43;32.50;21.00
62575;DHT22;53112;45.602;11.904;2023-02-20T14:57:13;33.00;20.50
62575;DHT22;53112;45.602;11.904;2023-02-20T14:59:40;32.60;21.20
62575;DHT22;53112;45.602;11.904;2023-02-20T15:02:25;33.40;20.50
62575;DHT22;53112;45.602;11.904;2023-02-20T15:05:05;33.80;19.90
62575;DHT22;53112;45.602;11.904;2023-02-20T15:07:32;31.10;22.10
62575;DHT22;53112;45.602;11.904;2023-02-20T15:10:02;29.10;25.00
62575;DHT22;53112;45.602;11.904;2023-02-20T15:12:33;28.10;25.90
62575;DHT22;53112;45.602;11.904;2023-02-20T15:15:09;26.80;27.80
62575;DHT22;53112;45.602;11.904;2023-02-20T15:17:41;26.00;28.80
62575;DHT22;53112;45.602;11.904;2023-02-20T15:20:35;25.90;29.20
62575;DHT22;53112;45.602;11.904;2023-02-20T15:23:24;25.60;29.70
62575;DHT22;53112;45.602;11.904;2023-02-20T15:25:50;25.10;29.90
62575;DHT22;53112;45.602;11.904;2023-02-20T15:33:42;24.60;30.60
62575;DHT22;53112;45.602;11.904;2023-02-20T15:36:13;24.40;31.20
62575;DHT22;53112;45.602;11.904;2023-02-20T15:38:40;24.20;31.50
62575;DHT22;53112;45.602;11.904;2023-02-20T15:41:06;24.10;31.80
62575;DHT22;53112;45.602;11.904;2023-02-20T15:43:33;23.70;32.20
62575;DHT22;53112;45.602;11.904;2023-02-20T15:45:59;23.70;32.10
62575;DHT22;53112;45.602;11.904;2023-02-20T15:48:25;23.60;32.40
62575;DHT22;53112;45.602;11.904;2023-02-20T15:50:51;23.40;32.70
62575;DHT22;53112;45.602;11.904;2023-02-20T15:53:23;23.10;33.10
62575;DHT22;53112;45.602;11.904;2023-02-20T15:55:52;23.00;33.30
62575;DHT22;53112;45.602;11.904;2023-02-20T15:58:22;23.00;33.50
62575;DHT22;53112;45.602;11.904;2023-02-20T16:00:49;22.80;33.70
62575;DHT22;53112;45.602;11.904;2023-02-20T16:03:16;22.60;34.30
62575;DHT22;53112;45.602;11.904;2023-02-20T16:05:42;22.40;34.50
62575;DHT22;53112;45.602;11.904;2023-02-20T16:08:08;22.20;34.60
62575;DHT22;53112;45.602;11.904;2023-02-20T16:10:33;22.00;34.90
62575;DHT22;53112;45.602;11.904;2023-02-20T16:13:00;21.90;35.10
62575;DHT22;53112;45.602;11.904;2023-02-20T16:15:26;21.70;35.70
62575;DHT22;53112;45.602;11.904;2023-02-20T16:17:53;21.60;35.80
62575;DHT22;53112;45.602;11.904;2023-02-20T16:20:29;21.30;36.10
62575;DHT22;53112;45.602;11.904;2023-02-20T16:22:55;21.10;36.30
62575;DHT22;53112;45.602;11.904;2023-02-20T16:25:22;20.90;36.60
62575;DHT22;53112;45.602;11.904;2023-02-20T16:27:51;20.80;36.80
62575;DHT22;53112;45.602;11.904;2023-02-20T16:30:27;20.60;37.20
62575;DHT22;53112;45.602;11.904;2023-02-20T16:32:54;20.40;37.30
62575;DHT22;53112;45.602;11.904;2023-02-20T16:35:20;20.20;37.80
62575;DHT22;53112;45.602;11.904;2023-02-20T16:37:46;20.10;38.00
62575;DHT22;53112;45.602;11.904;2023-02-20T16:40:13;19.90;38.40
62575;DHT22;53112;45.602;11.904;2023-02-20T16:42:39;19.70;38.70
62575;DHT22;53112;45.602;11.904;2023-02-20T16:45:18;19.50;39.00
62575;DHT22;53112;45.602;11.904;2023-02-20T16:47:48;19.40;39.50
62575;DHT22;53112;45.602;11.904;2023-02-20T16:50:16;19.20;39.60
62575;DHT22;53112;45.602;11.904;2023-02-20T16:52:45;19.10;39.90
62575;DHT22;53112;45.602;11.904;2023-02-20T16:55:27;18.80;40.60
62575;DHT22;53112;45.602;11.904;2023-02-20T16:57:54;18.60;41.40
62575;DHT22;53112;45.602;11.904;2023-02-20T17:00:27;18.30;41.20
62575;DHT22;53112;45.602;11.904;2023-02-20T17:02:54;18.20;41.50
62575;DHT22;53112;45.602;11.904;2023-02-20T17:05:23;18.00;41.60
62575;DHT22;53112;45.602;11.904;2023-02-20T17:07:50;17.90;42.00
62575;DHT22;53112;45.602;11.904;2023-02-20T17:10:16;17.70;42.20
62575;DHT22;53112;45.602;11.904;2023-02-20T17:12:42;17.60;42.80
62575;DHT22;53112;45.602;11.904;2023-02-20T17:15:09;17.40;43.40
62575;DHT22;53112;45.602;11.904;2023-02-20T17:17:35;17.10;44.80
62575;DHT22;53112;45.602;11.904;2023-02-20T17:20:01;16.50;47.80
62575;DHT22;53112;45.602;11.904;2023-02-20T17:22:27;16.50;46.70
62575;DHT22;53112;45.602;11.904;2023-02-20T17:24:54;16.60;45.80
62575;DHT22;53112;45.602;11.904;2023-02-20T17:27:21;16.60;45.80
62575;DHT22;53112;45.602;11.904;2023-02-20T17:29:48;16.50;46.80
62575;DHT22;53112;45.602;11.904;2023-02-20T17:32:15;16.40;47.90
62575;DHT22;53112;45.602;11.904;2023-02-20T17:34:41;16.30;47.50
62575;DHT22;53112;45.602;11.904;2023-02-20T17:37:08;16.30;47.80
62575;DHT22;53112;45.602;11.904;2023-02-20T17:39:34;16.30;48.20
62575;DHT22;53112;45.602;11.904;2023-02-20T17:42:01;16.20;48.00
62575;DHT22;53112;45.602;11.904;2023-02-20T17:44:29;16.00;49.50
62575;DHT22;53112;45.602;11.904;2023-02-20T17:46:58;15.90;50.40
62575;DHT22;53112;45.602;11.904;2023-02-20T17:49:25;15.90;50.10
62575;DHT22;53112;45.602;11.904;2023-02-20T17:51:54;15.90;50.60
62575;DHT22;53112;45.602;11.904;2023-02-20T17:54:20;15.80;50.40
62575;DHT22;53112;45.602;11.904;2023-02-20T17:56:49;15.70;50.50
62575;DHT22;53112;45.602;11.904;2023-02-20T17:59:15;15.60;51.40
62575;DHT22;53112;45.602;11.904;2023-02-20T18:01:42;15.50;51.10
62575;DHT22;53112;45.602;11.904;2023-02-20T18:04:08;15.40;51.50
62575;DHT22;53112;45.602;11.904;2023-02-20T18:06:36;15.40;51.60
62575;DHT22;53112;45.602;11.904;2023-02-20T18:09:04;15.30;51.50
62575;DHT22;53112;45.602;11.904;2023-02-20T18:11:31;15.20;51.90
62575;DHT22;53112;45.602;11.904;2023-02-20T18:13:57;15.20;52.20
62575;DHT22;53112;45.602;11.904;2023-02-20T18:16:25;15.20;52.00
62575;DHT22;53112;45.602;11.904;2023-02-20T18:18:51;15.20;51.90
62575;DHT22;53112;45.602;11.904;2023-02-20T18:21:26;15.20;51.80
62575;DHT22;53112;45.602;11.904;2023-02-20T18:23:53;15.10;52.30
62575;DHT22;53112;45.602;11.904;2023-02-20T18:26:19;15.00;52.90